sensor_id;sensor_type;location;lat;lon;timestamp;pressure;altitude;pressure_sealevel;temperature;humidity
3780;BME280;1905;52.482;9.802;2023-09-12T00:01:42;100738.31;;;22.63;73.31
3780;BME280;1905;52.482;9.802;2023-09-12T00:04:10;100727.72;;;22.61;73.05
3780;BME280;1905;52.482;9.802;2023-09-12T00:06:38;100723.31;;;22.60;72.68
3780;BME280;1905;52.482;9.802;2023-09-12T00:09:06;100715.50;;;22.57;72.89
3780;BME280;1905;52.482;9.802;2023-09-12T00:11:35;100720.88;;;22.57;72.96
3780;BME280;1905;52.482;9.802;2023-09-12T00:14:03;100741.84;;;22.53;73.22
3780;BME280;1905;52.482;9.802;2023-09-12T00:16:30;100757.16;;;22.53;73.28
3780;BME280;1905;52.482;9.802;2023-09-12T00:18:59;100760.16;;;22.50;73.39
3780;BME280;1905;52.482;9.802;2023-09-12T00:21:27;100745.25;;;22.46;73.36
3780;BME280;1905;52.482;9.802;2023-09-12T00:23:55;100742.28;;;22.49;73.28
3780;BME280;1905;52.482;9.802;2023-09-12T00:26:22;100745.97;;;22.48;73.36
3780;BME280;1905;52.482;9.802;2023-09-12T00:28:50;100741.72;;;22.45;73.19
3780;BME280;1905;52.482;9.802;2023-09-12T00:31:18;100743.53;;;22.45;73.49
3780;BME280;1905;52.482;9.802;2023-09-12T00:33:46;100743.28;;;22.38;73.90
3780;BME280;1905;52.482;9.802;2023-09-12T00:36:15;100728.00;;;22.39;74.07
3780;BME280;1905;52.482;9.802;2023-09-12T00:38:43;100704.75;;;22.38;74.44
3780;BME280;1905;52.482;9.802;2023-09-12T00:41:11;100702.34;;;22.35;74.32
3780;BME280;1905;52.482;9.802;2023-09-12T00:43:38;100697.97;;;22.34;73.88
3780;BME280;1905;52.482;9.802;2023-09-12T00:46:06;100695.38;;;22.32;73.96
3780;BME280;1905;52.482;9.802;2023-09-12T00:48:35;100679.25;;;22.32;74.01
3780;BME280;1905;52.482;9.802;2023-09-12T00:51:05;100684.91;;;22.29;74.34
3780;BME280;1905;52.482;9.802;2023-09-12T00:53:34;100678.66;;;22.29;73.87
3780;BME280;1905;52.482;9.802;2023-09-12T00:56:02;100675.28;;;22.27;74.10
3780;BME280;1905;52.482;9.802;2023-09-12T00:58:30;100668.19;;;22.26;73.73
3780;BME280;1905;52.482;9.802;2023-09-12T01:00:57;100669.19;;;22.25;74.27
3780;BME280;1905;52.482;9.802;2023-09-12T01:03:26;100665.66;;;22.24;74.09
3780;BME280;1905;52.482;9.802;2023-09-12T01:05:56;100660.53;;;22.21;74.05
3780;BME280;1905;52.482;9.802;2023-09-12T01:08:24;100657.16;;;22.19;73.78
3780;BME280;1905;52.482;9.802;2023-09-12T01:10:55;100658.13;;;22.18;74.12
3780;BME280;1905;52.482;9.802;2023-09-12T01:13:23;100662.97;;;22.15;73.83
3780;BME280;1905;52.482;9.802;2023-09-12T01:15:51;100657.72;;;22.13;74.02
3780;BME280;1905;52.482;9.802;2023-09-12T01:18:19;100659.53;;;22.13;73.45
3780;BME280;1905;52.482;9.802;2023-09-12T01:20:59;100658.84;;;22.11;73.93
3780;BME280;1905;52.482;9.802;2023-09-12T01:23:40;100662.81;;;22.07;73.72
3780;BME280;1905;52.482;9.802;2023-09-12T01:26:29;100665.53;;;22.07;73.78
3780;BME280;1905;52.482;9.802;2023-09-12T01:28:59;100668.47;;;22.04;74.51
3780;BME280;1905;52.482;9.802;2023-09-12T01:31:27;100662.53;;;22.00;73.93
3780;BME280;1905;52.482;9.802;2023-09-12T01:33:56;100673.28;;;22.00;74.63
3780;BME280;1905;52.482;9.802;2023-09-12T01:36:24;100672.72;;;21.97;74.92
3780;BME280;1905;52.482;9.802;2023-09-12T01:38:52;100683.47;;;21.97;74.27
3780;BME280;1905;52.482;9.802;2023-09-12T01:41:19;100690.84;;;21.94;74.90
3780;BME280;1905;52.482;9.802;2023-09-12T01:43:48;100688.28;;;21.93;75.00
3780;BME280;1905;52.482;9.802;2023-09-12T01:46:20;100700.88;;;21.92;75.13
3780;BME280;1905;52.482;9.802;2023-09-12T01:48:49;100705.84;;;21.87;74.53
3780;BME280;1905;52.482;9.802;2023-09-12T01:51:18;100699.59;;;21.87;75.02
3780;BME280;1905;52.482;9.802;2023-09-12T01:53:47;100697.00;;;21.85;74.88
3780;BME280;1905;52.482;9.802;2023-09-12T01:56:15;100700.69;;;21.84;74.93
3780;BME280;1905;52.482;9.802;2023-09-12T01:58:44;100697.28;;;21.82;75.29
3780;BME280;1905;52.482;9.802;2023-09-12T02:01:12;100699.25;;;21.80;75.67
3780;BME280;1905;52.482;9.802;2023-09-12T02:03:41;100699.53;;;21.77;75.16
3780;BME280;1905;52.482;9.802;2023-09-12T02:06:09;100703.22;;;21.76;75.57
3780;BME280;1905;52.482;9.802;2023-09-12T02:08:36;100709.72;;;21.74;74.83
3780;BME280;1905;52.482;9.802;2023-09-12T02:11:04;100710.88;;;21.71;75.08
3780;BME280;1905;52.482;9.802;2023-09-12T02:13:32;100709.84;;;21.72;75.29
3780;BME280;1905;52.482;9.802;2023-09-12T02:15:59;100710.97;;;21.70;75.71
3780;BME280;1905;52.482;9.802;2023-09-12T02:18:27;100708.56;;;21.67;75.67
3780;BME280;1905;52.482;9.802;2023-09-12T02:20:58;100722.16;;;21.65;75.50
3780;BME280;1905;52.482;9.802;2023-09-12T02:23:25;100731.34;;;21.63;75.51
3780;BME280;1905;52.482;9.802;2023-09-12T02:25:53;100736.00;;;21.61;75.18
3780;BME280;1905;52.482;9.802;2023-09-12T02:28:21;100735.28;;;21.59;75.53
3780;BME280;1905;52.482;9.802;2023-09-12T02:30:48;100730.91;;;21.58;75.72
3780;BME280;1905;52.482;9.802;2023-09-12T02:33:16;100744.47;;;21.56;75.36
3780;BME280;1905;52.482;9.802;2023-09-12T02:35:44;100757.19;;;21.54;75.56
3780;BME280;1905;52.482;9.802;2023-09-12T02:38:13;100760.88;;;21.53;76.07
3780;BME280;1905;52.482;9.802;2023-09-12T02:40:41;100753.81;;;21.52;75.48
3780;BME280;1905;52.482;9.802;2023-09-12T02:43:08;100762.13;;;21.49;75.92
3780;BME280;1905;52.482;9.802;2023-09-12T02:45:36;100775.56;;;21.49;76.11
3780;BME280;1905;52.482;9.802;2023-09-12T02:48:04;100779.25;;;21.48;76.04
3780;BME280;1905;52.482;9.802;2023-09-12T02:50:32;100782.06;;;21.47;76.13
3780;BME280;1905;52.482;9.802;2023-09-12T02:52:59;100791.97;;;21.46;76.16
3780;BME280;1905;52.482;9.802;2023-09-12T02:55:28;100788.56;;;21.44;76.40
3780;BME280;1905;52.482;9.802;2023-09-12T02:57:56;100784.88;;;21.45;76.30
3780;BME280;1905;52.482;9.802;2023-09-12T03:00:24;100769.00;;;21.42;76.92
3780;BME280;1905;52.482;9.802;2023-09-12T03:02:52;100767.34;;;21.41;76.06
3780;BME280;1905;52.482;9.802;2023-09-12T03:05:19;100753.16;;;21.39;77.44
3780;BME280;1905;52.482;9.802;2023-09-12T03:07:47;100744.13;;;21.40;76.82
3780;BME280;1905;52.482;9.802;2023-09-12T03:10:15;100738.75;;;21.40;77.39
3780;BME280;1905;52.482;9.802;2023-09-12T03:12:44;100735.34;;;21.38;77.33
3780;BME280;1905;52.482;9.802;2023-09-12T03:15:12;100717.66;;;21.35;76.96
3780;BME280;1905;52.482;9.802;2023-09-12T03:17:39;100707.03;;;21.34;77.04
3780;BME280;1905;52.482;9.802;2023-09-12T03:20:08;100709.72;;;21.34;77.06
3780;BME280;1905;52.482;9.802;2023-09-12T03:22:36;100717.78;;;21.34;76.96
3780;BME280;1905;52.482;9.802;2023-09-12T03:25:06;100724.16;;;21.33;77.04
3780;BME280;1905;52.482;9.802;2023-09-12T03:27:33;100715.09;;;21.34;76.42
3780;BME280;1905;52.482;9.802;2023-09-12T03:30:03;100713.41;;;21.33;76.39
3780;BME280;1905;52.482;9.802;2023-09-12T03:32:31;100741.25;;;21.32;76.08
3780;BME280;1905;52.482;9.802;2023-09-12T03:34:59;100736.16;;;21.29;76.65
3780;BME280;1905;52.482;9.802;2023-09-12T03:37:27;100741.50;;;21.29;76.21
3780;BME280;1905;52.482;9.802;2023-09-12T03:39:55;100763.00;;;21.29;76.46
3780;BME280;1905;52.482;9.802;2023-09-12T03:42:23;100801.34;;;21.31;76.32
3780;BME280;1905;52.482;9.802;2023-09-12T03:45:05;100827.50;;;21.29;76.70
3780;BME280;1905;52.482;9.802;2023-09-12T03:47:33;100829.22;;;21.30;76.85
3780;BME280;1905;52.482;9.802;2023-09-12T03:50:01;100831.16;;;21.28;77.72
3780;BME280;1905;52.482;9.802;2023-09-12T03:52:29;100841.91;;;21.28;76.56
3780;BME280;1905;52.482;9.802;2023-09-12T03:54:57;100856.34;;;21.27;76.82
3780;BME280;1905;52.482;9.802;2023-09-12T03:57:27;100852.94;;;21.25;77.76
3780;BME280;1905;52.482;9.802;2023-09-12T03:59:55;100851.22;;;21.24;77.62
3780;BME280;1905;52.482;9.802;2023-09-12T04:02:24;100840.75;;;21.21;79.19
3780;BME280;1905;52.482;9.802;2023-09-12T04:04:51;100830.59;;;21.24;79.52
3780;BME280;1905;52.482;9.802;2023-09-12T04:07:19;100821.81;;;21.22;79.13
3780;BME280;1905;52.482;9.802;2023-09-12T04:09:47;100805.56;;;21.24;79.90
3780;BME280;1905;52.482;9.802;2023-09-12T04:12:14;100773.31;;;21.24;79.10
3780;BME280;1905;52.482;9.802;2023-09-12T04:14:42;100764.28;;;21.25;79.61
3780;BME280;1905;52.482;9.802;2023-09-12T04:17:10;100766.66;;;21.28;79.88
3780;BME280;1905;52.482;9.802;2023-09-12T04:19:39;100793.84;;;21.25;79.04
3780;BME280;1905;52.482;9.802;2023-09-12T04:22:06;100836.69;;;21.26;78.62
3780;BME280;1905;52.482;9.802;2023-09-12T04:24:34;100834.97;;;21.25;78.19
3780;BME280;1905;52.482;9.802;2023-09-12T04:27:02;100777.72;;;21.25;78.28
3780;BME280;1905;52.482;9.802;2023-09-12T04:29:32;100768.78;;;21.24;78.06
3780;BME280;1905;52.482;9.802;2023-09-12T04:32:01;100723.97;;;21.25;77.69
3780;BME280;1905;52.482;9.802;2023-09-12T04:34:30;100725.94;;;21.23;77.77
3780;BME280;1905;52.482;9.802;2023-09-12T04:37:01;100725.94;;;21.23;77.97
3780;BME280;1905;52.482;9.802;2023-09-12T04:39:30;100718.97;;;21.20;78.34
3780;BME280;1905;52.482;9.802;2023-09-12T04:41:58;100709.25;;;21.19;78.02
3780;BME280;1905;52.482;9.802;2023-09-12T04:44:25;100703.00;;;21.19;77.86
3780;BME280;1905;52.482;9.802;2023-09-12T04:46:54;100706.69;;;21.18;77.76
3780;BME280;1905;52.482;9.802;2023-09-12T04:49:22;100706.81;;;21.16;78.00
3780;BME280;1905;52.482;9.802;2023-09-12T04:51:50;100699.88;;;21.14;77.47
3780;BME280;1905;52.482;9.802;2023-09-12T04:54:19;100705.38;;;21.12;77.96
3780;BME280;1905;52.482;9.802;2023-09-12T04:56:47;100694.06;;;21.09;77.73
3780;BME280;1905;52.482;9.802;2023-09-12T04:59:14;100691.38;;;21.09;77.43
3780;BME280;1905;52.482;9.802;2023-09-12T05:01:42;100693.31;;;21.07;77.65
3780;BME280;1905;52.482;9.802;2023-09-12T05:04:10;100691.72;;;21.04;77.88
3780;BME280;1905;52.482;9.802;2023-09-12T05:06:37;100681.13;;;21.03;78.04
3780;BME280;1905;52.482;9.802;2023-09-12T05:09:06;100684.78;;;21.02;78.23
3780;BME280;1905;52.482;9.802;2023-09-12T05:11:36;100694.81;;;21.00;77.91
3780;BME280;1905;52.482;9.802;2023-09-12T05:14:04;100706.41;;;21.00;77.78
3780;BME280;1905;52.482;9.802;2023-09-12T05:16:32;100715.59;;;20.98;78.51
3780;BME280;1905;52.482;9.802;2023-09-12T05:19:00;100734.41;;;20.98;77.88
3780;BME280;1905;52.482;9.802;2023-09-12T05:21:29;100759.69;;;20.95;78.35
3780;BME280;1905;52.482;9.802;2023-09-12T05:23:56;100787.38;;;20.96;78.35
3780;BME280;1905;52.482;9.802;2023-09-12T05:26:24;100791.91;;;20.95;78.32
3780;BME280;1905;52.482;9.802;2023-09-12T05:28:53;100808.28;;;20.92;78.66
3780;BME280;1905;52.482;9.802;2023-09-12T05:31:21;100818.16;;;20.92;78.24
3780;BME280;1905;52.482;9.802;2023-09-12T05:33:48;100806.56;;;20.91;78.31
3780;BME280;1905;52.482;9.802;2023-09-12T05:36:16;100798.38;;;20.93;77.49
3780;BME280;1905;52.482;9.802;2023-09-12T05:38:44;100816.44;;;20.91;78.07
3780;BME280;1905;52.482;9.802;2023-09-12T05:41:11;100837.94;;;20.91;78.34
3780;BME280;1905;52.482;9.802;2023-09-12T05:43:39;100857.97;;;20.87;78.78
3780;BME280;1905;52.482;9.802;2023-09-12T05:46:10;100852.34;;;20.90;78.89
3780;BME280;1905;52.482;9.802;2023-09-12T05:48:37;100842.13;;;20.84;79.13
3780;BME280;1905;52.482;9.802;2023-09-12T05:51:05;100833.06;;;20.85;78.60
3780;BME280;1905;52.482;9.802;2023-09-12T05:53:35;100831.50;;;20.82;78.76
3780;BME280;1905;52.482;9.802;2023-09-12T05:56:03;100819.94;;;20.82;78.88
3780;BME280;1905;52.482;9.802;2023-09-12T05:58:31;100840.41;;;20.83;78.39
3780;BME280;1905;52.482;9.802;2023-09-12T06:01:00;100827.97;;;20.82;78.19
3780;BME280;1905;52.482;9.802;2023-09-12T06:03:30;100825.41;;;20.80;78.83
3780;BME280;1905;52.482;9.802;2023-09-12T06:05:58;100836.16;;;20.80;78.65
3780;BME280;1905;52.482;9.802;2023-09-12T06:08:26;100840.66;;;20.79;79.21
3780;BME280;1905;52.482;9.802;2023-09-12T06:10:53;100847.75;;;20.81;78.73
3780;BME280;1905;52.482;9.802;2023-09-12T06:13:21;100856.78;;;20.79;79.12
3780;BME280;1905;52.482;9.802;2023-09-12T06:15:49;100855.09;;;20.78;78.66
3780;BME280;1905;52.482;9.802;2023-09-12T06:18:17;100837.00;;;20.81;77.96
3780;BME280;1905;52.482;9.802;2023-09-12T06:20:46;100831.03;;;20.77;78.61
3780;BME280;1905;52.482;9.802;2023-09-12T06:23:13;100816.03;;;20.74;79.19
3780;BME280;1905;52.482;9.802;2023-09-12T06:25:41;100806.16;;;20.75;78.87
3780;BME280;1905;52.482;9.802;2023-09-12T06:28:09;100820.53;;;20.74;79.02
3780;BME280;1905;52.482;9.802;2023-09-12T06:30:37;100824.22;;;20.73;79.10
3780;BME280;1905;52.482;9.802;2023-09-12T06:33:04;100805.56;;;20.71;78.81
3780;BME280;1905;52.482;9.802;2023-09-12T06:35:32;100809.22;;;20.70;78.99
3780;BME280;1905;52.482;9.802;2023-09-12T06:38:01;100803.88;;;20.70;78.96
3780;BME280;1905;52.482;9.802;2023-09-12T06:40:29;100781.66;;;20.68;79.48
3780;BME280;1905;52.482;9.802;2023-09-12T06:42:56;100784.63;;;20.65;79.07
3780;BME280;1905;52.482;9.802;2023-09-12T06:45:24;100793.63;;;20.64;79.08
3780;BME280;1905;52.482;9.802;2023-09-12T06:47:52;100799.00;;;20.64;78.84
3780;BME280;1905;52.482;9.802;2023-09-12T06:50:19;100776.81;;;20.62;79.07
3780;BME280;1905;52.482;9.802;2023-09-12T06:52:47;100766.06;;;20.62;79.03
3780;BME280;1905;52.482;9.802;2023-09-12T06:55:16;100779.50;;;20.62;78.72
3780;BME280;1905;52.482;9.802;2023-09-12T06:57:43;100777.78;;;20.61;78.63
3780;BME280;1905;52.482;9.802;2023-09-12T07:00:13;100765.34;;;20.60;78.78
3780;BME280;1905;52.482;9.802;2023-09-12T07:02:40;100738.75;;;20.57;78.88
3780;BME280;1905;52.482;9.802;2023-09-12T07:05:08;100737.06;;;20.56;79.01
3780;BME280;1905;52.482;9.802;2023-09-12T07:07:36;100738.03;;;20.55;78.82
3780;BME280;1905;52.482;9.802;2023-09-12T07:10:05;100721.22;;;20.53;79.10
3780;BME280;1905;52.482;9.802;2023-09-12T07:12:52;100709.50;;;20.54;79.00
3780;BME280;1905;52.482;9.802;2023-09-12T07:15:20;100709.63;;;20.53;79.58
3780;BME280;1905;52.482;9.802;2023-09-12T07:17:48;100699.75;;;20.53;79.17
3780;BME280;1905;52.482;9.802;2023-09-12T07:20:16;100691.69;;;20.53;79.34
3780;BME280;1905;52.482;9.802;2023-09-12T07:22:44;100667.53;;;20.53;79.52
3780;BME280;1905;52.482;9.802;2023-09-12T07:25:13;100661.06;;;20.56;79.55
3780;BME280;1905;52.482;9.802;2023-09-12T07:27:41;100679.13;;;20.54;79.27
3780;BME280;1905;52.482;9.802;2023-09-12T07:30:11;100676.31;;;20.55;79.42
3780;BME280;1905;52.482;9.802;2023-09-12T07:32:39;100689.59;;;20.57;79.31
3780;BME280;1905;52.482;9.802;2023-09-12T07:35:07;100697.53;;;20.58;79.64
3780;BME280;1905;52.482;9.802;2023-09-12T07:37:34;100720.72;;;20.59;79.29
3780;BME280;1905;52.482;9.802;2023-09-12T07:40:03;100721.41;;;20.61;79.32
3780;BME280;1905;52.482;9.802;2023-09-12T07:42:35;100729.06;;;20.66;79.05
3780;BME280;1905;52.482;9.802;2023-09-12T07:45:03;100739.44;;;20.70;78.86
3780;BME280;1905;52.482;9.802;2023-09-12T07:47:33;100752.47;;;20.75;78.57
3780;BME280;1905;52.482;9.802;2023-09-12T07:50:00;100776.22;;;20.79;78.62
3780;BME280;1905;52.482;9.802;2023-09-12T07:52:29;100786.72;;;20.83;80.16
3780;BME280;1905;52.482;9.802;2023-09-12T07:54:59;100797.44;;;20.83;79.42
3780;BME280;1905;52.482;9.802;2023-09-12T07:57:27;100791.56;;;20.89;78.80
3780;BME280;1905;52.482;9.802;2023-09-12T07:59:55;100782.25;;;20.93;78.73
3780;BME280;1905;52.482;9.802;2023-09-12T08:02:23;100780.31;;;20.95;79.16
3780;BME280;1905;52.482;9.802;2023-09-12T08:04:52;100789.09;;;20.97;79.77
3780;BME280;1905;52.482;9.802;2023-09-12T08:07:20;100776.38;;;20.99;79.52
3780;BME280;1905;52.482;9.802;2023-09-12T08:09:50;100799.56;;;21.00;80.18
3780;BME280;1905;52.482;9.802;2023-09-12T08:12:18;100813.44;;;21.05;79.82
3780;BME280;1905;52.482;9.802;2023-09-12T08:14:47;100841.81;;;21.09;79.61
3780;BME280;1905;52.482;9.802;2023-09-12T08:17:15;100849.56;;;21.12;79.46
3780;BME280;1905;52.482;9.802;2023-09-12T08:19:43;100858.38;;;21.14;78.98
3780;BME280;1905;52.482;9.802;2023-09-12T08:22:12;100858.22;;;21.15;78.63
3780;BME280;1905;52.482;9.802;2023-09-12T08:24:40;100875.22;;;21.16;78.00
3780;BME280;1905;52.482;9.802;2023-09-12T08:27:08;100882.31;;;21.17;78.36
3780;BME280;1905;52.482;9.802;2023-09-12T08:29:36;100882.41;;;21.15;78.19
3780;BME280;1905;52.482;9.802;2023-09-12T08:32:04;100896.69;;;21.16;77.90
3780;BME280;1905;52.482;9.802;2023-09-12T08:34:32;100905.63;;;21.16;77.87
3780;BME280;1905;52.482;9.802;2023-09-12T08:37:00;100913.69;;;21.16;78.11
3780;BME280;1905;52.482;9.802;2023-09-12T08:39:40;100920.88;;;21.16;77.91
3780;BME280;1905;52.482;9.802;2023-09-12T08:42:12;100921.03;;;21.14;78.01
3780;BME280;1905;52.482;9.802;2023-09-12T08:44:41;100897.81;;;21.13;78.49
3780;BME280;1905;52.482;9.802;2023-09-12T08:47:09;100913.94;;;21.13;78.31
3780;BME280;1905;52.482;9.802;2023-09-12T08:49:38;100925.53;;;21.14;78.47
3780;BME280;1905;52.482;9.802;2023-09-12T08:52:05;100918.44;;;21.13;78.54
3780;BME280;1905;52.482;9.802;2023-09-12T08:54:34;100911.34;;;21.12;77.98
3780;BME280;1905;52.482;9.802;2023-09-12T08:57:03;100922.09;;;21.12;78.04
3780;BME280;1905;52.482;9.802;2023-09-12T08:59:33;100922.97;;;21.12;78.43
3780;BME280;1905;52.482;9.802;2023-09-12T09:02:02;100915.75;;;21.13;78.35
3780;BME280;1905;52.482;9.802;2023-09-12T09:04:34;100905.00;;;21.13;78.27
3780;BME280;1905;52.482;9.802;2023-09-12T09:07:03;100893.31;;;21.14;78.21
3780;BME280;1905;52.482;9.802;2023-09-12T09:09:31;100903.19;;;21.13;78.12
3780;BME280;1905;52.482;9.802;2023-09-12T09:12:01;100917.34;;;21.15;78.34
3780;BME280;1905;52.482;9.802;2023-09-12T09:14:29;100920.88;;;21.16;78.06
3780;BME280;1905;52.482;9.802;2023-09-12T09:16:58;100931.63;;;21.16;78.20
3780;BME280;1905;52.482;9.802;2023-09-12T09:19:40;100934.06;;;21.19;78.07
3780;BME280;1905;52.482;9.802;2023-09-12T09:22:08;100939.53;;;21.17;78.40
3780;BME280;1905;52.482;9.802;2023-09-12T09:24:36;100947.59;;;21.17;78.43
3780;BME280;1905;52.482;9.802;2023-09-12T09:27:06;100936.03;;;21.17;80.09
3780;BME280;1905;52.482;9.802;2023-09-12T09:29:46;100943.09;;;21.18;78.55
3780;BME280;1905;52.482;9.802;2023-09-12T09:32:18;100950.19;;;21.19;79.63
3780;BME280;1905;52.482;9.802;2023-09-12T09:34:48;100941.13;;;21.20;79.17
3780;BME280;1905;52.482;9.802;2023-09-12T09:37:16;100939.44;;;21.19;79.38
3780;BME280;1905;52.482;9.802;2023-09-12T09:39:47;100986.06;;;21.18;79.65
3780;BME280;1905;52.482;9.802;2023-09-12T09:42:20;101000.50;;;21.17;79.83
3780;BME280;1905;52.482;9.802;2023-09-12T09:44:47;100966.56;;;21.16;79.27
3780;BME280;1905;52.482;9.802;2023-09-12T09:47:17;100936.28;;;21.14;79.42
3780;BME280;1905;52.482;9.802;2023-09-12T09:49:45;100936.28;;;21.14;79.21
3780;BME280;1905;52.482;9.802;2023-09-12T09:52:13;100927.47;;;21.12;79.19
3780;BME280;1905;52.482;9.802;2023-09-12T09:54:43;100924.94;;;21.10;79.38
3780;BME280;1905;52.482;9.802;2023-09-12T09:57:11;100913.59;;;21.07;79.36
3780;BME280;1905;52.482;9.802;2023-09-12T09:59:40;100899.41;;;21.05;79.13
3780;BME280;1905;52.482;9.802;2023-09-12T10:02:15;100946.88;;;21.04;78.97
3780;BME280;1905;52.482;9.802;2023-09-12T10:04:45;100942.63;;;21.02;79.65
3780;BME280;1905;52.482;9.802;2023-09-12T10:07:25;100925.09;;;20.98;79.62
3780;BME280;1905;52.482;9.802;2023-09-12T10:09:54;100937.75;;;20.96;79.67
3780;BME280;1905;52.482;9.802;2023-09-12T10:12:23;100954.13;;;20.93;79.49
3780;BME280;1905;52.482;9.802;2023-09-12T10:14:53;100913.25;;;20.89;79.92
3780;BME280;1905;52.482;9.802;2023-09-12T10:17:21;100898.00;;;20.90;79.87
3780;BME280;1905;52.482;9.802;2023-09-12T10:19:55;100904.34;;;20.89;79.68
3780;BME280;1905;52.482;9.802;2023-09-12T10:22:25;100908.25;;;20.85;80.04
3780;BME280;1905;52.482;9.802;2023-09-12T10:24:56;100925.38;;;20.84;79.68
3780;BME280;1905;52.482;9.802;2023-09-12T10:27:25;100919.28;;;20.82;79.85
3780;BME280;1905;52.482;9.802;2023-09-12T10:29:55;100911.31;;;20.80;79.60
3780;BME280;1905;52.482;9.802;2023-09-12T10:32:27;100892.69;;;20.78;79.78
3780;BME280;1905;52.482;9.802;2023-09-12T10:34:58;100880.47;;;20.74;79.31
3780;BME280;1905;52.482;9.802;2023-09-12T10:37:27;100901.09;;;20.74;80.33
3780;BME280;1905;52.482;9.802;2023-09-12T10:39:57;100919.78;;;20.75;80.30
3780;BME280;1905;52.482;9.802;2023-09-12T10:42:27;100910.72;;;20.76;80.24
3780;BME280;1905;52.482;9.802;2023-09-12T10:44:57;100902.19;;;20.71;80.18
3780;BME280;1905;52.482;9.802;2023-09-12T10:47:27;100898.53;;;20.72;80.31
3780;BME280;1905;52.482;9.802;2023-09-12T10:49:56;100871.69;;;20.72;80.03
3780;BME280;1905;52.482;9.802;2023-09-12T10:52:24;100851.44;;;20.68;81.53
3780;BME280;1905;52.482;9.802;2023-09-12T10:54:52;100863.44;;;20.64;80.73
3780;BME280;1905;52.482;9.802;2023-09-12T10:57:20;100890.88;;;20.68;80.56
3780;BME280;1905;52.482;9.802;2023-09-12T11:00:12;100891.69;;;20.68;80.63
3780;BME280;1905;52.482;9.802;2023-09-12T11:02:40;100888.31;;;20.66;80.95
3780;BME280;1905;52.482;9.802;2023-09-12T11:05:36;100891.69;;;20.68;79.66
3780;BME280;1905;52.482;9.802;2023-09-12T11:08:04;100882.94;;;20.66;80.29
3780;BME280;1905;52.482;9.802;2023-09-12T11:10:32;100897.34;;;20.65;80.24
3780;BME280;1905;52.482;9.802;2023-09-12T11:12:59;100893.66;;;20.66;80.28
3780;BME280;1905;52.482;9.802;2023-09-12T11:15:28;100878.56;;;20.65;80.20
3780;BME280;1905;52.482;9.802;2023-09-12T11:18:02;100888.31;;;20.66;79.87
3780;BME280;1905;52.482;9.802;2023-09-12T11:20:49;100898.06;;;20.67;79.61
3780;BME280;1905;52.482;9.802;2023-09-12T11:23:19;100921.50;;;20.65;80.13
3780;BME280;1905;52.482;9.802;2023-09-12T11:25:47;100950.91;;;20.67;79.83
3780;BME280;1905;52.482;9.802;2023-09-12T11:28:15;100936.63;;;20.66;80.48
3780;BME280;1905;52.482;9.802;2023-09-12T11:30:56;100921.38;;;20.67;79.91
3780;BME280;1905;52.482;9.802;2023-09-12T11:33:25;100936.63;;;20.66;79.78
3780;BME280;1905;52.482;9.802;2023-09-12T11:35:54;100936.63;;;20.66;79.87
3780;BME280;1905;52.482;9.802;2023-09-12T11:38:31;100929.56;;;20.65;79.18
3780;BME280;1905;52.482;9.802;2023-09-12T11:40:59;100960.06;;;20.64;79.80
3780;BME280;1905;52.482;9.802;2023-09-12T11:43:28;100965.44;;;20.64;80.04
3780;BME280;1905;52.482;9.802;2023-09-12T11:45:57;100952.97;;;20.63;79.65
3780;BME280;1905;52.482;9.802;2023-09-12T11:48:25;100952.97;;;20.63;80.03
3780;BME280;1905;52.482;9.802;2023-09-12T11:50:55;100940.56;;;20.62;80.23
3780;BME280;1905;52.482;9.802;2023-09-12T11:53:24;100928.09;;;20.61;80.26
3780;BME280;1905;52.482;9.802;2023-09-12T11:55:55;100929.06;;;20.60;80.13
3780;BME280;1905;52.482;9.802;2023-09-12T11:58:24;100910.28;;;20.60;80.31
3780;BME280;1905;52.482;9.802;2023-09-12T12:00:54;100890.66;;;20.60;80.37
3780;BME280;1905;52.482;9.802;2023-09-12T12:03:25;100904.06;;;20.60;80.17
3780;BME280;1905;52.482;9.802;2023-09-12T12:05:54;100902.22;;;20.60;80.23
3780;BME280;1905;52.482;9.802;2023-09-12T12:08:23;100894.41;;;20.57;80.50
3780;BME280;1905;52.482;9.802;2023-09-12T12:10:58;100870.25;;;20.57;80.78
3780;BME280;1905;52.482;9.802;2023-09-12T12:13:26;100852.56;;;20.55;81.06
3780;BME280;1905;52.482;9.802;2023-09-12T12:16:14;100851.59;;;20.56;80.20
3780;BME280;1905;52.482;9.802;2023-09-12T12:18:43;100850.63;;;20.57;80.66
3780;BME280;1905;52.482;9.802;2023-09-12T12:21:11;100859.66;;;20.56;80.58
3780;BME280;1905;52.482;9.802;2023-09-12T12:23:39;100843.41;;;20.57;80.52
3780;BME280;1905;52.482;9.802;2023-09-12T12:26:08;100826.50;;;20.57;80.31
3780;BME280;1905;52.482;9.802;2023-09-12T12:28:37;100830.00;;;20.57;80.13
3780;BME280;1905;52.482;9.802;2023-09-12T12:31:04;100853.19;;;20.58;80.11
3780;BME280;1905;52.482;9.802;2023-09-12T12:33:32;100840.72;;;20.57;80.18
3780;BME280;1905;52.482;9.802;2023-09-12T12:36:21;100827.31;;;20.57;80.48
3780;BME280;1905;52.482;9.802;2023-09-12T12:38:50;100825.38;;;20.59;80.08
3780;BME280;1905;52.482;9.802;2023-09-12T12:41:23;100815.34;;;20.61;79.75
3780;BME280;1905;52.482;9.802;2023-09-12T12:43:56;100808.28;;;20.60;81.11
3780;BME280;1905;52.482;9.802;2023-09-12T12:46:28;100807.16;;;20.63;80.82
3780;BME280;1905;52.482;9.802;2023-09-12T12:48:56;100802.41;;;20.66;80.87
3780;BME280;1905;52.482;9.802;2023-09-12T12:51:25;100805.81;;;20.68;80.31
3780;BME280;1905;52.482;9.802;2023-09-12T12:54:04;100808.38;;;20.70;79.90
3780;BME280;1905;52.482;9.802;2023-09-12T12:56:32;100810.66;;;20.74;80.00
3780;BME280;1905;52.482;9.802;2023-09-12T12:59:01;100795.28;;;20.76;80.01
3780;BME280;1905;52.482;9.802;2023-09-12T13:01:30;100798.56;;;20.80;80.65
3780;BME280;1905;52.482;9.802;2023-09-12T13:03:58;100793.78;;;20.84;80.60
3780;BME280;1905;52.482;9.802;2023-09-12T13:06:27;100806.09;;;20.86;80.27
3780;BME280;1905;52.482;9.802;2023-09-12T13:08:58;100795.97;;;20.90;79.92
3780;BME280;1905;52.482;9.802;2023-09-12T13:11:28;100786.53;;;20.95;80.65
3780;BME280;1905;52.482;9.802;2023-09-12T13:13:55;100778.06;;;21.00;79.96
3780;BME280;1905;52.482;9.802;2023-09-12T13:16:23;100781.22;;;21.05;82.08
3780;BME280;1905;52.482;9.802;2023-09-12T13:18:51;100770.00;;;21.11;80.06
3780;BME280;1905;52.482;9.802;2023-09-12T13:21:19;100783.88;;;21.16;79.54